Sirios Cement IV — 5BQY4 — position and weather

sailwx.info

Track history (hours):
 
Tides and Currents Weather Stations Pressure Air Temp Water Temp Dewpoint Dewpoint Depression Visibility Wind Speed Wind Dir Waves Ship Positions

Sirios Cement IV

Last reported at 2017-Nov-23 11:00 UTC. Time now 2017-Nov-23 11:20 UTC.
Position N 37°06' E 026°00'.

Length 134 m; draft 8.8 m.

Type: Cargo ship. MMSI: 212754000.

Date/timePositionNaut miles runAvg speedWind from/ knotsBaromVisibWave heightAir tempDewpointWater temp
2017-Nov-23 11:00N 37°06' E 026°00'510.9
2017-Nov-23 10:30N 37°10' E 025°56'611.1
2017-Nov-23 10:00N 37°14' E 025°51'611.3
2017-Nov-23 09:30N 37°18' E 025°47'811.1
2017-Nov-23 08:45N 37°25' E 025°40'310.7
2017-Nov-23 08:30N 37°27' E 025°37'611.2
2017-Nov-23 08:00N 37°31' E 025°33'611.3
2017-Nov-23 07:30N 37°35' E 025°28'611.4
2017-Nov-23 07:00N 37°40' E 025°24'611.4
2017-Nov-23 06:30N 37°44' E 025°19'611.9
2017-Nov-23 06:00N 37°49' E 025°14'711.6
2017-Nov-23 05:23N 37°54' E 025°08'6711.6
2017-Nov-22 23:35N 38°44' E 024°11'111.7
2017-Nov-22 23:28N 38°44' E 024°09'  
2017-Nov-20 00:30N 37°31' E 025°33'510.5
2017-Nov-20 00:01N 37°27' E 025°37'510.6
2017-Nov-19 23:30N 37°23' E 025°42'510.7
2017-Nov-19 23:01N 37°19' E 025°46'510.5
2017-Nov-19 22:31N 37°15' E 025°50'40910.3
2017-Nov-18 06:39N 33°58' E 033°11'1 9.4
2017-Nov-18 06:30N 33°57' E 033°12'5 9.5
2017-Nov-18 06:00N 33°54' E 033°16'61 9.8
2017-Nov-17 23:48N 33°13' E 034°11'310.4
2017-Nov-17 23:30N 33°12' E 034°14'1710.3
2017-Nov-17 21:53N 33°03' E 034°31'410.6
2017-Nov-17 21:30N 33°01' E 034°36'610.7
2017-Nov-17 20:57N 32°59' E 034°42'510.8
2017-Nov-17 20:29N 32°56' E 034°47'510.7
2017-Nov-17 20:00N 32°55' E 034°53'  
2017-Nov-14 01:44N 37°14' E 025°51'211.2
2017-Nov-14 01:31N 37°16' E 025°49'611.6
2017-Nov-14 01:00N 37°20' E 025°44'611.7
2017-Nov-14 00:29N 37°25' E 025°40'611.5
2017-Nov-14 00:00N 37°29' E 025°35'611.6
2017-Nov-13 23:30N 37°34' E 025°30'611.5
2017-Nov-13 23:00N 37°38' E 025°26'611.6
2017-Nov-13 22:30N 37°42' E 025°21'611.7
2017-Nov-13 22:01N 37°47' E 025°16'  
Track history (hours):
 
Tides and Currents Weather Stations Pressure Air Temp Water Temp Dewpoint Dewpoint Depression Visibility Wind Speed Wind Dir Waves Ship Positions

Sirios Cement IV

Last reported at 2017-Nov-23 11:00 UTC. Time now 2017-Nov-23 11:20 UTC.
Position N 37°06' E 026°00'.

Length 134 m; draft 8.8 m.

Type: Cargo ship. MMSI: 212754000.

Date/timePositionNaut miles runAvg speedWind from/ knotsBaromVisibWave heightAir tempDewpointWater temp
2017-Nov-23 11:00N 37°06' E 026°00'510.9
2017-Nov-23 10:30N 37°10' E 025°56'611.1
2017-Nov-23 10:00N 37°14' E 025°51'611.3
2017-Nov-23 09:30N 37°18' E 025°47'811.1
2017-Nov-23 08:45N 37°25' E 025°40'310.7
2017-Nov-23 08:30N 37°27' E 025°37'611.2
2017-Nov-23 08:00N 37°31' E 025°33'611.3
2017-Nov-23 07:30N 37°35' E 025°28'611.4
2017-Nov-23 07:00N 37°40' E 025°24'611.4
2017-Nov-23 06:30N 37°44' E 025°19'611.9
2017-Nov-23 06:00N 37°49' E 025°14'711.6
2017-Nov-23 05:23N 37°54' E 025°08'6711.6
2017-Nov-22 23:35N 38°44' E 024°11'111.7
2017-Nov-22 23:28N 38°44' E 024°09'  
2017-Nov-20 00:30N 37°31' E 025°33'510.5
2017-Nov-20 00:01N 37°27' E 025°37'510.6
2017-Nov-19 23:30N 37°23' E 025°42'510.7
2017-Nov-19 23:01N 37°19' E 025°46'510.5
2017-Nov-19 22:31N 37°15' E 025°50'40910.3
2017-Nov-18 06:39N 33°58' E 033°11'1 9.4
2017-Nov-18 06:30N 33°57' E 033°12'5 9.5
2017-Nov-18 06:00N 33°54' E 033°16'61 9.8
2017-Nov-17 23:48N 33°13' E 034°11'310.4
2017-Nov-17 23:30N 33°12' E 034°14'1710.3
2017-Nov-17 21:53N 33°03' E 034°31'410.6
2017-Nov-17 21:30N 33°01' E 034°36'610.7
2017-Nov-17 20:57N 32°59' E 034°42'510.8
2017-Nov-17 20:29N 32°56' E 034°47'510.7
2017-Nov-17 20:00N 32°55' E 034°53'  
2017-Nov-14 01:44N 37°14' E 025°51'211.2
2017-Nov-14 01:31N 37°16' E 025°49'611.6
2017-Nov-14 01:00N 37°20' E 025°44'611.7
2017-Nov-14 00:29N 37°25' E 025°40'611.5
2017-Nov-14 00:00N 37°29' E 025°35'611.6
2017-Nov-13 23:30N 37°34' E 025°30'611.5
2017-Nov-13 23:00N 37°38' E 025°26'611.6
2017-Nov-13 22:30N 37°42' E 025°21'611.7
2017-Nov-13 22:01N 37°47' E 025°16'  

Dump ship's entire track history